sensor_id;sensor_type;location;lat;lon;timestamp;pressure;altitude;pressure_sealevel;temperature;humidity
38267;BME280;24063;51.794;19.578;2023-01-30T00:00:30;98247.10;;;-1.43;100.00
38267;BME280;24063;51.794;19.578;2023-01-30T00:01:53;98239.85;;;-1.45;100.00
38267;BME280;24063;51.794;19.578;2023-01-30T00:02:55;98244.98;;;-1.45;100.00
38267;BME280;24063;51.794;19.578;2023-01-30T00:03:57;98241.32;;;-1.45;100.00
38267;BME280;24063;51.794;19.578;2023-01-30T00:04:59;98231.56;;;-1.45;100.00
38267;BME280;24063;51.794;19.578;2023-01-30T00:06:01;98237.44;;;-1.45;100.00
38267;BME280;24063;51.794;19.578;2023-01-30T00:07:03;98231.36;;;-1.46;100.00
38267;BME280;24063;51.794;19.578;2023-01-30T00:08:05;98232.14;;;-1.46;100.00
38267;BME280;24063;51.794;19.578;2023-01-30T00:09:12;98230.84;;;-1.47;100.00
38267;BME280;24063;51.794;19.578;2023-01-30T00:10:15;98228.55;;;-1.50;100.00
38267;BME280;24063;51.794;19.578;2023-01-30T00:11:19;98230.02;;;-1.51;100.00
38267;BME280;24063;51.794;19.578;2023-01-30T00:12:21;98228.31;;;-1.51;100.00
38267;BME280;24063;51.794;19.578;2023-01-30T00:13:23;98227.29;;;-1.51;100.00
38267;BME280;24063;51.794;19.578;2023-01-30T00:14:25;98229.18;;;-1.54;100.00
38267;BME280;24063;51.794;19.578;2023-01-30T00:15:27;98225.05;;;-1.55;100.00
38267;BME280;24063;51.794;19.578;2023-01-30T00:16:29;98222.08;;;-1.54;100.00
38267;BME280;24063;51.794;19.578;2023-01-30T00:17:31;98217.83;;;-1.55;100.00
38267;BME280;24063;51.794;19.578;2023-01-30T00:18:33;98214.79;;;-1.55;100.00
38267;BME280;24063;51.794;19.578;2023-01-30T00:19:35;98215.56;;;-1.55;100.00
38267;BME280;24063;51.794;19.578;2023-01-30T00:20:37;98207.19;;;-1.56;100.00
38267;BME280;24063;51.794;19.578;2023-01-30T00:21:39;98207.05;;;-1.57;100.00
38267;BME280;24063;51.794;19.578;2023-01-30T00:22:41;98206.02;;;-1.57;100.00
38267;BME280;24063;51.794;19.578;2023-01-30T00:23:59;98198.46;;;-1.61;100.00
38267;BME280;24063;51.794;19.578;2023-01-30T00:25:01;98200.84;;;-1.61;100.00
38267;BME280;24063;51.794;19.578;2023-01-30T00:26:05;98198.89;;;-1.62;100.00
38267;BME280;24063;51.794;19.578;2023-01-30T00:27:08;98198.16;;;-1.63;100.00
38267;BME280;24063;51.794;19.578;2023-01-30T00:28:09;98191.85;;;-1.65;100.00
38267;BME280;24063;51.794;19.578;2023-01-30T00:29:11;98192.02;;;-1.66;100.00
38267;BME280;24063;51.794;19.578;2023-01-30T00:30:14;98186.25;;;-1.68;100.00
38267;BME280;24063;51.794;19.578;2023-01-30T00:31:15;98184.87;;;-1.68;100.00
38267;BME280;24063;51.794;19.578;2023-01-30T00:32:17;98184.46;;;-1.68;100.00
38267;BME280;24063;51.794;19.578;2023-01-30T00:33:21;98180.02;;;-1.68;100.00
38267;BME280;24063;51.794;19.578;2023-01-30T00:34:25;98165.00;;;-1.70;100.00
38267;BME280;24063;51.794;19.578;2023-01-30T00:35:27;98170.86;;;-1.71;100.00
38267;BME280;24063;51.794;19.578;2023-01-30T00:36:29;98171.84;;;-1.71;100.00
38267;BME280;24063;51.794;19.578;2023-01-30T00:37:32;98168.63;;;-1.73;100.00
38267;BME280;24063;51.794;19.578;2023-01-30T00:38:34;98162.27;;;-1.75;100.00
38267;BME280;24063;51.794;19.578;2023-01-30T00:39:36;98159.45;;;-1.75;100.00
38267;BME280;24063;51.794;19.578;2023-01-30T00:40:38;98154.08;;;-1.76;100.00
38267;BME280;24063;51.794;19.578;2023-01-30T00:41:40;98152.23;;;-1.75;100.00
38267;BME280;24063;51.794;19.578;2023-01-30T00:43:01;98149.42;;;-1.76;100.00
38267;BME280;24063;51.794;19.578;2023-01-30T00:44:22;98143.84;;;-1.77;100.00
38267;BME280;24063;51.794;19.578;2023-01-30T00:45:45;98140.19;;;-1.75;100.00
38267;BME280;24063;51.794;19.578;2023-01-30T00:47:06;98141.35;;;-1.76;100.00
38267;BME280;24063;51.794;19.578;2023-01-30T00:48:09;98138.98;;;-1.75;100.00
38267;BME280;24063;51.794;19.578;2023-01-30T00:49:11;98136.99;;;-1.78;100.00
38267;BME280;24063;51.794;19.578;2023-01-30T00:50:14;98134.23;;;-1.78;100.00
38267;BME280;24063;51.794;19.578;2023-01-30T00:51:17;98134.56;;;-1.79;100.00
38267;BME280;24063;51.794;19.578;2023-01-30T00:52:19;98131.70;;;-1.80;100.00
38267;BME280;24063;51.794;19.578;2023-01-30T00:53:21;98130.24;;;-1.81;100.00
38267;BME280;24063;51.794;19.578;2023-01-30T00:54:23;98125.89;;;-1.81;100.00
38267;BME280;24063;51.794;19.578;2023-01-30T00:55:25;98125.16;;;-1.83;100.00
38267;BME280;24063;51.794;19.578;2023-01-30T00:56:27;98122.63;;;-1.84;100.00
38267;BME280;24063;51.794;19.578;2023-01-30T00:57:31;98120.05;;;-1.84;100.00
38267;BME280;24063;51.794;19.578;2023-01-30T00:58:33;98120.88;;;-1.84;100.00
38267;BME280;24063;51.794;19.578;2023-01-30T00:59:34;98120.88;;;-1.82;100.00
38267;BME280;24063;51.794;19.578;2023-01-30T01:00:38;98122.53;;;-1.82;100.00
38267;BME280;24063;51.794;19.578;2023-01-30T01:01:40;98120.94;;;-1.80;100.00
38267;BME280;24063;51.794;19.578;2023-01-30T01:02:42;98119.16;;;-1.80;100.00
38267;BME280;24063;51.794;19.578;2023-01-30T01:03:44;98120.05;;;-1.80;100.00
38267;BME280;24063;51.794;19.578;2023-01-30T01:04:46;98119.59;;;-1.80;100.00
38267;BME280;24063;51.794;19.578;2023-01-30T01:05:48;98115.33;;;-1.80;100.00
38267;BME280;24063;51.794;19.578;2023-01-30T01:06:50;98113.48;;;-1.81;100.00
38267;BME280;24063;51.794;19.578;2023-01-30T01:07:53;98103.59;;;-1.81;100.00
38267;BME280;24063;51.794;19.578;2023-01-30T01:08:57;98101.59;;;-1.81;100.00
38267;BME280;24063;51.794;19.578;2023-01-30T01:09:59;98098.16;;;-1.82;100.00
38267;BME280;24063;51.794;19.578;2023-01-30T01:11:01;98091.23;;;-1.81;100.00
38267;BME280;24063;51.794;19.578;2023-01-30T01:12:03;98084.55;;;-1.82;100.00
38267;BME280;24063;51.794;19.578;2023-01-30T01:13:06;98082.15;;;-1.82;100.00
38267;BME280;24063;51.794;19.578;2023-01-30T01:14:09;98080.58;;;-1.81;100.00
38267;BME280;24063;51.794;19.578;2023-01-30T01:15:12;98077.10;;;-1.80;100.00
38267;BME280;24063;51.794;19.578;2023-01-30T01:16:15;98067.03;;;-1.80;100.00
38267;BME280;24063;51.794;19.578;2023-01-30T01:17:17;98072.23;;;-1.81;100.00
38267;BME280;24063;51.794;19.578;2023-01-30T01:18:19;98071.80;;;-1.81;100.00
38267;BME280;24063;51.794;19.578;2023-01-30T01:19:21;98066.72;;;-1.83;100.00
38267;BME280;24063;51.794;19.578;2023-01-30T01:20:24;98056.73;;;-1.83;100.00
38267;BME280;24063;51.794;19.578;2023-01-30T01:21:26;98049.02;;;-1.85;100.00
38267;BME280;24063;51.794;19.578;2023-01-30T01:22:28;98042.60;;;-1.85;100.00
38267;BME280;24063;51.794;19.578;2023-01-30T01:23:30;98039.50;;;-1.85;100.00
38267;BME280;24063;51.794;19.578;2023-01-30T01:24:32;98035.46;;;-1.85;100.00
38267;BME280;24063;51.794;19.578;2023-01-30T01:25:34;98032.15;;;-1.84;100.00
38267;BME280;24063;51.794;19.578;2023-01-30T01:26:37;98030.73;;;-1.84;100.00
38267;BME280;24063;51.794;19.578;2023-01-30T01:27:39;98033.95;;;-1.85;100.00
38267;BME280;24063;51.794;19.578;2023-01-30T01:28:42;98037.30;;;-1.86;100.00
38267;BME280;24063;51.794;19.578;2023-01-30T01:29:44;98038.92;;;-1.85;100.00
38267;BME280;24063;51.794;19.578;2023-01-30T01:30:46;98036.16;;;-1.85;100.00
38267;BME280;24063;51.794;19.578;2023-01-30T01:31:48;98033.02;;;-1.86;100.00
38267;BME280;24063;51.794;19.578;2023-01-30T01:32:51;98032.33;;;-1.84;100.00
38267;BME280;24063;51.794;19.578;2023-01-30T01:33:52;98033.15;;;-1.87;100.00
38267;BME280;24063;51.794;19.578;2023-01-30T01:34:54;98027.39;;;-1.86;100.00
38267;BME280;24063;51.794;19.578;2023-01-30T01:35:56;98026.98;;;-1.85;100.00
38267;BME280;24063;51.794;19.578;2023-01-30T01:36:59;98028.98;;;-1.84;100.00
38267;BME280;24063;51.794;19.578;2023-01-30T01:38:01;98025.39;;;-1.85;100.00
38267;BME280;24063;51.794;19.578;2023-01-30T01:39:03;98021.98;;;-1.86;100.00
38267;BME280;24063;51.794;19.578;2023-01-30T01:40:06;98021.61;;;-1.86;100.00
38267;BME280;24063;51.794;19.578;2023-01-30T01:41:27;98020.55;;;-1.86;100.00
38267;BME280;24063;51.794;19.578;2023-01-30T01:42:34;98016.80;;;-1.87;100.00
38267;BME280;24063;51.794;19.578;2023-01-30T01:44:02;98018.11;;;-1.88;100.00
38267;BME280;24063;51.794;19.578;2023-01-30T01:45:23;98013.30;;;-1.89;100.00
38267;BME280;24063;51.794;19.578;2023-01-30T01:46:41;98013.80;;;-1.88;100.00
38267;BME280;24063;51.794;19.578;2023-01-30T01:48:50;98012.05;;;-1.90;100.00
38267;BME280;24063;51.794;19.578;2023-01-30T01:49:42;98014.16;;;-1.90;100.00
38267;BME280;24063;51.794;19.578;2023-01-30T01:51:09;98010.13;;;-1.92;100.00
38267;BME280;24063;51.794;19.578;2023-01-30T01:52:15;98011.41;;;-1.92;100.00
38267;BME280;24063;51.794;19.578;2023-01-30T01:53:23;98006.42;;;-1.93;100.00
38267;BME280;24063;51.794;19.578;2023-01-30T01:54:33;98005.08;;;-1.91;100.00
38267;BME280;24063;51.794;19.578;2023-01-30T01:55:41;98004.38;;;-1.90;100.00
38267;BME280;24063;51.794;19.578;2023-01-30T01:56:47;98007.27;;;-1.89;100.00
38267;BME280;24063;51.794;19.578;2023-01-30T01:57:56;98008.45;;;-1.90;100.00
38267;BME280;24063;51.794;19.578;2023-01-30T01:59:25;98006.02;;;-1.90;100.00
38267;BME280;24063;51.794;19.578;2023-01-30T02:00:31;98001.29;;;-1.90;100.00
38267;BME280;24063;51.794;19.578;2023-01-30T02:01:34;98002.31;;;-1.91;100.00
38267;BME280;24063;51.794;19.578;2023-01-30T02:02:37;98001.48;;;-1.91;100.00
38267;BME280;24063;51.794;19.578;2023-01-30T02:03:46;97998.33;;;-1.92;100.00
38267;BME280;24063;51.794;19.578;2023-01-30T02:04:56;98000.00;;;-1.94;100.00
38267;BME280;24063;51.794;19.578;2023-01-30T02:06:03;97995.44;;;-1.94;100.00
38267;BME280;24063;51.794;19.578;2023-01-30T02:09:26;97994.50;;;-1.92;100.00
38267;BME280;24063;51.794;19.578;2023-01-30T02:10:46;97992.70;;;-1.93;100.00
38267;BME280;24063;51.794;19.578;2023-01-30T02:11:55;97992.26;;;-1.94;100.00
38267;BME280;24063;51.794;19.578;2023-01-30T02:12:56;97988.98;;;-1.94;100.00
38267;BME280;24063;51.794;19.578;2023-01-30T02:14:00;97990.05;;;-1.95;100.00
38267;BME280;24063;51.794;19.578;2023-01-30T02:15:03;97987.14;;;-1.96;100.00
38267;BME280;24063;51.794;19.578;2023-01-30T02:16:06;97986.32;;;-1.97;100.00
38267;BME280;24063;51.794;19.578;2023-01-30T02:17:07;97985.76;;;-1.98;100.00
38267;BME280;24063;51.794;19.578;2023-01-30T02:18:09;97980.66;;;-1.99;100.00
38267;BME280;24063;51.794;19.578;2023-01-30T02:25:46;97969.05;;;-2.10;100.00
38267;BME280;24063;51.794;19.578;2023-01-30T02:28:51;97962.26;;;-2.12;100.00
38267;BME280;24063;51.794;19.578;2023-01-30T02:31:56;97959.05;;;-2.16;100.00
38267;BME280;24063;51.794;19.578;2023-01-30T02:33:19;97957.27;;;-2.17;100.00
38267;BME280;24063;51.794;19.578;2023-01-30T02:34:35;97951.52;;;-2.17;100.00
38267;BME280;24063;51.794;19.578;2023-01-30T02:35:55;97945.63;;;-2.17;100.00
38267;BME280;24063;51.794;19.578;2023-01-30T02:38:30;97939.86;;;-2.21;100.00
38267;BME280;24063;51.794;19.578;2023-01-30T02:41:35;97947.80;;;-2.24;100.00
38267;BME280;24063;51.794;19.578;2023-01-30T02:42:55;97942.85;;;-2.29;100.00
38267;BME280;24063;51.794;19.578;2023-01-30T02:44:08;97943.11;;;-2.31;100.00
38267;BME280;24063;51.794;19.578;2023-01-30T02:48:01;97925.90;;;-2.35;100.00
38267;BME280;24063;51.794;19.578;2023-01-30T02:49:38;97923.37;;;-2.36;100.00
38267;BME280;24063;51.794;19.578;2023-01-30T02:50:52;97922.76;;;-2.36;100.00
38267;BME280;24063;51.794;19.578;2023-01-30T02:51:59;97924.30;;;-2.35;100.00
38267;BME280;24063;51.794;19.578;2023-01-30T02:53:04;97914.65;;;-2.37;100.00
38267;BME280;24063;51.794;19.578;2023-01-30T02:54:06;97913.98;;;-2.38;100.00
38267;BME280;24063;51.794;19.578;2023-01-30T02:55:20;97904.77;;;-2.40;100.00
38267;BME280;24063;51.794;19.578;2023-01-30T02:56:21;97897.27;;;-2.41;100.00
38267;BME280;24063;51.794;19.578;2023-01-30T02:57:24;97897.80;;;-2.42;100.00
38267;BME280;24063;51.794;19.578;2023-01-30T02:58:37;97886.91;;;-2.43;100.00
38267;BME280;24063;51.794;19.578;2023-01-30T02:59:46;97890.98;;;-2.43;100.00
38267;BME280;24063;51.794;19.578;2023-01-30T03:08:23;97879.91;;;-2.45;100.00
38267;BME280;24063;51.794;19.578;2023-01-30T03:09:50;97872.99;;;-2.46;100.00
38267;BME280;24063;51.794;19.578;2023-01-30T03:11:01;97866.80;;;-2.48;100.00
38267;BME280;24063;51.794;19.578;2023-01-30T03:15:05;97855.66;;;-2.50;100.00
38267;BME280;24063;51.794;19.578;2023-01-30T03:16:14;97843.09;;;-2.51;100.00
38267;BME280;24063;51.794;19.578;2023-01-30T03:17:22;97839.43;;;-2.50;100.00
38267;BME280;24063;51.794;19.578;2023-01-30T03:18:26;97842.44;;;-2.50;100.00
38267;BME280;24063;51.794;19.578;2023-01-30T03:19:28;97837.91;;;-2.50;100.00
38267;BME280;24063;51.794;19.578;2023-01-30T03:20:30;97839.76;;;-2.49;100.00
38267;BME280;24063;51.794;19.578;2023-01-30T03:21:42;97835.43;;;-2.49;100.00
38267;BME280;24063;51.794;19.578;2023-01-30T03:22:45;97830.99;;;-2.49;100.00
38267;BME280;24063;51.794;19.578;2023-01-30T03:23:46;97830.84;;;-2.50;100.00
38267;BME280;24063;51.794;19.578;2023-01-30T03:24:50;97827.63;;;-2.51;100.00
38267;BME280;24063;51.794;19.578;2023-01-30T03:25:53;97824.32;;;-2.50;100.00
38267;BME280;24063;51.794;19.578;2023-01-30T03:27:06;97820.58;;;-2.50;100.00
38267;BME280;24063;51.794;19.578;2023-01-30T03:28:10;97819.55;;;-2.50;100.00
38267;BME280;24063;51.794;19.578;2023-01-30T03:29:13;97818.66;;;-2.50;100.00
38267;BME280;24063;51.794;19.578;2023-01-30T03:30:15;97817.56;;;-2.50;100.00
38267;BME280;24063;51.794;19.578;2023-01-30T03:31:16;97818.05;;;-2.49;100.00
38267;BME280;24063;51.794;19.578;2023-01-30T03:32:17;97810.52;;;-2.49;100.00
38267;BME280;24063;51.794;19.578;2023-01-30T03:33:18;97807.83;;;-2.48;100.00
38267;BME280;24063;51.794;19.578;2023-01-30T03:34:21;97806.29;;;-2.50;100.00
38267;BME280;24063;51.794;19.578;2023-01-30T03:35:22;97802.11;;;-2.50;100.00
38267;BME280;24063;51.794;19.578;2023-01-30T03:36:23;97802.29;;;-2.50;100.00
38267;BME280;24063;51.794;19.578;2023-01-30T03:37:24;97804.80;;;-2.52;100.00
38267;BME280;24063;51.794;19.578;2023-01-30T03:38:25;97799.42;;;-2.52;100.00
38267;BME280;24063;51.794;19.578;2023-01-30T03:39:27;97799.15;;;-2.53;100.00
38267;BME280;24063;51.794;19.578;2023-01-30T03:40:28;97796.83;;;-2.53;100.00
38267;BME280;24063;51.794;19.578;2023-01-30T03:41:29;97795.20;;;-2.54;100.00
38267;BME280;24063;51.794;19.578;2023-01-30T03:42:30;97794.52;;;-2.54;100.00
38267;BME280;24063;51.794;19.578;2023-01-30T03:43:31;97788.98;;;-2.56;100.00
38267;BME280;24063;51.794;19.578;2023-01-30T03:44:31;97786.91;;;-2.56;100.00
38267;BME280;24063;51.794;19.578;2023-01-30T03:45:32;97787.15;;;-2.58;100.00
38267;BME280;24063;51.794;19.578;2023-01-30T03:46:33;97782.52;;;-2.59;100.00
38267;BME280;24063;51.794;19.578;2023-01-30T03:47:33;97783.02;;;-2.60;100.00
38267;BME280;24063;51.794;19.578;2023-01-30T03:48:34;97782.20;;;-2.60;100.00
38267;BME280;24063;51.794;19.578;2023-01-30T03:49:35;97777.56;;;-2.62;100.00
38267;BME280;24063;51.794;19.578;2023-01-30T03:50:35;97768.21;;;-2.63;100.00
38267;BME280;24063;51.794;19.578;2023-01-30T03:51:36;97764.83;;;-2.64;100.00
38267;BME280;24063;51.794;19.578;2023-01-30T03:52:37;97767.25;;;-2.64;100.00
38267;BME280;24063;51.794;19.578;2023-01-30T03:53:42;97760.16;;;-2.66;100.00
38267;BME280;24063;51.794;19.578;2023-01-30T03:54:43;97758.38;;;-2.67;100.00
38267;BME280;24063;51.794;19.578;2023-01-30T03:55:44;97753.09;;;-2.68;100.00
38267;BME280;24063;51.794;19.578;2023-01-30T03:56:45;97752.05;;;-2.68;100.00
38267;BME280;24063;51.794;19.578;2023-01-30T03:57:45;97750.90;;;-2.69;100.00
38267;BME280;24063;51.794;19.578;2023-01-30T03:58:46;97748.78;;;-2.69;100.00
38267;BME280;24063;51.794;19.578;2023-01-30T03:59:50;97750.34;;;-2.69;100.00
38267;BME280;24063;51.794;19.578;2023-01-30T04:00:51;97746.65;;;-2.69;100.00
38267;BME280;24063;51.794;19.578;2023-01-30T04:01:52;97739.76;;;-2.69;100.00
38267;BME280;24063;51.794;19.578;2023-01-30T04:02:53;97735.31;;;-2.69;100.00
38267;BME280;24063;51.794;19.578;2023-01-30T04:03:54;97731.81;;;-2.69;100.00
38267;BME280;24063;51.794;19.578;2023-01-30T04:04:55;97729.23;;;-2.70;100.00
38267;BME280;24063;51.794;19.578;2023-01-30T04:05:56;97721.71;;;-2.71;100.00
38267;BME280;24063;51.794;19.578;2023-01-30T04:06:57;97729.67;;;-2.72;100.00
38267;BME280;24063;51.794;19.578;2023-01-30T04:07:58;97722.48;;;-2.74;100.00
38267;BME280;24063;51.794;19.578;2023-01-30T04:08:59;97719.33;;;-2.77;100.00
38267;BME280;24063;51.794;19.578;2023-01-30T04:10:13;97710.70;;;-2.78;100.00
38267;BME280;24063;51.794;19.578;2023-01-30T04:11:15;97707.78;;;-2.78;100.00
38267;BME280;24063;51.794;19.578;2023-01-30T04:12:16;97700.91;;;-2.78;100.00
38267;BME280;24063;51.794;19.578;2023-01-30T04:13:23;97698.39;;;-2.79;100.00
38267;BME280;24063;51.794;19.578;2023-01-30T04:14:23;97698.75;;;-2.79;100.00
38267;BME280;24063;51.794;19.578;2023-01-30T04:16:13;97699.66;;;-2.81;100.00
38267;BME280;24063;51.794;19.578;2023-01-30T04:18:08;97694.73;;;-2.82;100.00
38267;BME280;24063;51.794;19.578;2023-01-30T04:19:19;97693.60;;;-2.83;100.00
38267;BME280;24063;51.794;19.578;2023-01-30T04:20:20;97692.31;;;-2.84;100.00
38267;BME280;24063;51.794;19.578;2023-01-30T04:21:24;97692.35;;;-2.83;100.00
38267;BME280;24063;51.794;19.578;2023-01-30T04:22:25;97694.09;;;-2.83;100.00
38267;BME280;24063;51.794;19.578;2023-01-30T04:23:26;97693.52;;;-2.82;100.00
38267;BME280;24063;51.794;19.578;2023-01-30T04:24:27;97695.73;;;-2.83;100.00
38267;BME280;24063;51.794;19.578;2023-01-30T04:25:28;97694.13;;;-2.83;100.00
38267;BME280;24063;51.794;19.578;2023-01-30T04:26:29;97692.67;;;-2.84;100.00
38267;BME280;24063;51.794;19.578;2023-01-30T04:27:29;97696.14;;;-2.83;100.00
38267;BME280;24063;51.794;19.578;2023-01-30T04:28:52;97690.64;;;-2.83;100.00
38267;BME280;24063;51.794;19.578;2023-01-30T04:29:52;97684.75;;;-2.84;100.00
38267;BME280;24063;51.794;19.578;2023-01-30T04:30:53;97693.73;;;-2.84;100.00
38267;BME280;24063;51.794;19.578;2023-01-30T04:32:13;97694.86;;;-2.83;100.00
38267;BME280;24063;51.794;19.578;2023-01-30T04:33:15;97690.44;;;-2.83;100.00
38267;BME280;24063;51.794;19.578;2023-01-30T04:34:15;97689.66;;;-2.82;100.00
38267;BME280;24063;51.794;19.578;2023-01-30T04:35:16;97695.27;;;-2.82;100.00
38267;BME280;24063;51.794;19.578;2023-01-30T04:36:17;97690.19;;;-2.83;100.00
38267;BME280;24063;51.794;19.578;2023-01-30T04:37:18;97690.35;;;-2.82;100.00
38267;BME280;24063;51.794;19.578;2023-01-30T04:38:22;97699.98;;;-2.82;100.00
38267;BME280;24063;51.794;19.578;2023-01-30T04:39:23;97689.36;;;-2.82;100.00
38267;BME280;24063;51.794;19.578;2023-01-30T04:40:24;97694.08;;;-2.80;100.00
38267;BME280;24063;51.794;19.578;2023-01-30T04:41:24;97686.77;;;-2.79;100.00
38267;BME280;24063;51.794;19.578;2023-01-30T04:42:28;97693.33;;;-2.79;100.00
38267;BME280;24063;51.794;19.578;2023-01-30T04:43:49;97695.82;;;-2.79;100.00
38267;BME280;24063;51.794;19.578;2023-01-30T04:44:56;97692.44;;;-2.78;100.00
38267;BME280;24063;51.794;19.578;2023-01-30T04:46:00;97698.46;;;-2.79;100.00
38267;BME280;24063;51.794;19.578;2023-01-30T04:47:02;97693.38;;;-2.79;100.00
38267;BME280;24063;51.794;19.578;2023-01-30T04:48:03;97683.70;;;-2.79;100.00
38267;BME280;24063;51.794;19.578;2023-01-30T04:49:04;97676.82;;;-2.79;100.00
38267;BME280;24063;51.794;19.578;2023-01-30T04:50:06;97678.64;;;-2.78;100.00
38267;BME280;24063;51.794;19.578;2023-01-30T04:51:07;97667.09;;;-2.77;100.00
38267;BME280;24063;51.794;19.578;2023-01-30T04:52:08;97664.47;;;-2.76;100.00
38267;BME280;24063;51.794;19.578;2023-01-30T04:53:10;97663.29;;;-2.76;100.00
38267;BME280;24063;51.794;19.578;2023-01-30T04:54:11;97653.90;;;-2.75;100.00
38267;BME280;24063;51.794;19.578;2023-01-30T04:55:12;97650.02;;;-2.74;100.00
38267;BME280;24063;51.794;19.578;2023-01-30T04:56:13;97644.48;;;-2.73;100.00
38267;BME280;24063;51.794;19.578;2023-01-30T04:57:14;97636.34;;;-2.73;100.00
38267;BME280;24063;51.794;19.578;2023-01-30T04:58:16;97630.20;;;-2.73;100.00
38267;BME280;24063;51.794;19.578;2023-01-30T04:59:19;97621.60;;;-2.73;100.00
38267;BME280;24063;51.794;19.578;2023-01-30T05:00:20;97608.96;;;-2.74;100.00
38267;BME280;24063;51.794;19.578;2023-01-30T05:01:31;97607.10;;;-2.75;100.00
38267;BME280;24063;51.794;19.578;2023-01-30T05:02:32;97610.76;;;-2.74;100.00
38267;BME280;24063;51.794;19.578;2023-01-30T05:03:33;97614.21;;;-2.74;100.00
38267;BME280;24063;51.794;19.578;2023-01-30T05:04:33;97617.27;;;-2.74;100.00
38267;BME280;24063;51.794;19.578;2023-01-30T05:05:34;97614.38;;;-2.74;100.00
38267;BME280;24063;51.794;19.578;2023-01-30T05:06:35;97609.41;;;-2.73;100.00
38267;BME280;24063;51.794;19.578;2023-01-30T05:07:36;97605.23;;;-2.71;100.00
38267;BME280;24063;51.794;19.578;2023-01-30T05:08:36;97604.69;;;-2.69;100.00
38267;BME280;24063;51.794;19.578;2023-01-30T05:09:39;97606.92;;;-2.67;100.00
38267;BME280;24063;51.794;19.578;2023-01-30T05:10:40;97605.36;;;-2.66;100.00
38267;BME280;24063;51.794;19.578;2023-01-30T05:11:41;97604.72;;;-2.65;100.00
38267;BME280;24063;51.794;19.578;2023-01-30T05:12:42;97599.29;;;-2.64;100.00
38267;BME280;24063;51.794;19.578;2023-01-30T05:13:43;97590.91;;;-2.65;100.00
38267;BME280;24063;51.794;19.578;2023-01-30T05:14:43;97584.50;;;-2.66;100.00
38267;BME280;24063;51.794;19.578;2023-01-30T05:15:45;97580.30;;;-2.66;100.00
38267;BME280;24063;51.794;19.578;2023-01-30T05:16:46;97580.06;;;-2.66;100.00
38267;BME280;24063;51.794;19.578;2023-01-30T05:17:47;97581.75;;;-2.65;100.00
38267;BME280;24063;51.794;19.578;2023-01-30T05:18:48;97582.45;;;-2.65;100.00
38267;BME280;24063;51.794;19.578;2023-01-30T05:19:48;97580.25;;;-2.64;100.00
38267;BME280;24063;51.794;19.578;2023-01-30T05:20:49;97580.69;;;-2.63;100.00
38267;BME280;24063;51.794;19.578;2023-01-30T05:21:50;97579.42;;;-2.62;100.00
38267;BME280;24063;51.794;19.578;2023-01-30T05:22:50;97582.05;;;-2.61;100.00
38267;BME280;24063;51.794;19.578;2023-01-30T05:23:52;97573.99;;;-2.61;100.00
38267;BME280;24063;51.794;19.578;2023-01-30T05:24:52;97572.40;;;-2.60;100.00
38267;BME280;24063;51.794;19.578;2023-01-30T05:25:53;97567.31;;;-2.60;100.00
38267;BME280;24063;51.794;19.578;2023-01-30T05:26:53;97564.42;;;-2.59;100.00
38267;BME280;24063;51.794;19.578;2023-01-30T05:27:54;97561.84;;;-2.59;100.00
38267;BME280;24063;51.794;19.578;2023-01-30T05:28:57;97554.83;;;-2.60;100.00
38267;BME280;24063;51.794;19.578;2023-01-30T05:29:57;97552.25;;;-2.59;100.00
38267;BME280;24063;51.794;19.578;2023-01-30T05:31:02;97554.28;;;-2.59;100.00
38267;BME280;24063;51.794;19.578;2023-01-30T05:32:04;97548.46;;;-2.59;100.00
38267;BME280;24063;51.794;19.578;2023-01-30T05:33:05;97545.65;;;-2.59;100.00
38267;BME280;24063;51.794;19.578;2023-01-30T05:34:05;97542.59;;;-2.59;100.00
38267;BME280;24063;51.794;19.578;2023-01-30T05:35:06;97540.60;;;-2.57;100.00
38267;BME280;24063;51.794;19.578;2023-01-30T05:36:13;97536.59;;;-2.56;100.00
38267;BME280;24063;51.794;19.578;2023-01-30T05:37:14;97540.12;;;-2.55;100.00
38267;BME280;24063;51.794;19.578;2023-01-30T05:38:15;97539.87;;;-2.54;100.00
38267;BME280;24063;51.794;19.578;2023-01-30T05:39:16;97539.67;;;-2.54;100.00
38267;BME280;24063;51.794;19.578;2023-01-30T05:40:17;97543.38;;;-2.54;100.00
38267;BME280;24063;51.794;19.578;2023-01-30T05:41:18;97541.30;;;-2.54;100.00
38267;BME280;24063;51.794;19.578;2023-01-30T05:42:19;97538.98;;;-2.55;100.00
38267;BME280;24063;51.794;19.578;2023-01-30T05:43:19;97541.33;;;-2.57;100.00
38267;BME280;24063;51.794;19.578;2023-01-30T05:44:20;97544.34;;;-2.57;100.00
38267;BME280;24063;51.794;19.578;2023-01-30T05:45:20;97541.16;;;-2.58;100.00
38267;BME280;24063;51.794;19.578;2023-01-30T05:46:21;97528.40;;;-2.59;100.00
38267;BME280;24063;51.794;19.578;2023-01-30T05:47:22;97534.23;;;-2.60;100.00
38267;BME280;24063;51.794;19.578;2023-01-30T05:48:23;97533.63;;;-2.61;100.00
38267;BME280;24063;51.794;19.578;2023-01-30T05:49:23;97523.38;;;-2.61;100.00
38267;BME280;24063;51.794;19.578;2023-01-30T05:50:24;97518.27;;;-2.61;100.00
38267;BME280;24063;51.794;19.578;2023-01-30T05:51:26;97525.38;;;-2.62;100.00
38267;BME280;24063;51.794;19.578;2023-01-30T05:52:27;97523.01;;;-2.64;100.00
38267;BME280;24063;51.794;19.578;2023-01-30T05:53:30;97526.42;;;-2.67;100.00
38267;BME280;24063;51.794;19.578;2023-01-30T05:54:33;97527.49;;;-2.72;100.00
38267;BME280;24063;51.794;19.578;2023-01-30T05:55:34;97527.28;;;-2.76;100.00
38267;BME280;24063;51.794;19.578;2023-01-30T05:56:35;97525.69;;;-2.81;100.00
38267;BME280;24063;51.794;19.578;2023-01-30T05:57:36;97523.80;;;-2.84;100.00
38267;BME280;24063;51.794;19.578;2023-01-30T05:58:36;97519.27;;;-2.86;100.00
38267;BME280;24063;51.794;19.578;2023-01-30T05:59:37;97518.83;;;-2.88;100.00
38267;BME280;24063;51.794;19.578;2023-01-30T06:00:38;97514.69;;;-2.90;100.00
38267;BME280;24063;51.794;19.578;2023-01-30T06:01:39;97511.92;;;-2.90;100.00
38267;BME280;24063;51.794;19.578;2023-01-30T06:02:39;97514.02;;;-2.92;100.00